Wetterstation Vordersexau
Wetterdaten: Juni 2011
Datum Temp. A. Feuchte A. Luftdruck Regen Wind Richtung Taupunkt Windchill Windben
01.06.2011 11,2 C 83 % 1022,1 hPa 3,9 l/m 3,4 km/h N-NO 8,4 C 10,6 C 1,9 km/h
02.06.2011 18,5 C 63 % 1023,2 hPa 0,0 l/m 3,6 km/h NO 10,8 C 18,1 C 2,0 km/h
03.06.2011 22,2 C 57 % 1019,8 hPa 0,0 l/m 1,2 km/h N-NO 12,5 C 22,2 C 0,7 km/h
04.06.2011 21,5 C 70 % 1012,7 hPa 0,0 l/m 1,5 km/h SO 15,4 C 21,4 C 0,8 km/h
05.06.2011 22,1 C 64 % 1007,3 hPa 0,0 l/m 3,0 km/h SO 14,1 C 21,8 C 1,7 km/h
06.06.2011 19,1 C 70 % 1005,0 hPa 1,8 l/m 4,9 km/h SO 13,0 C 18,6 C 2,7 km/h
07.06.2011 20,2 C 68 % 1003,3 hPa 1,1 l/m 0,8 km/h S-SO 13,3 C 20,1 C 0,4 km/h
08.06.2011 14,6 C 84 % 1006,8 hPa 11,7 l/m 1,4 km/h SO 11,8 C 14,4 C 0,8 km/h
09.06.2011 15,6 C 70 % 1014,3 hPa 5,0 l/m 0,4 km/h S-SO 9,6 C 15,6 C 0,2 km/h
10.06.2011 16,4 C 66 % 1014,1 hPa 0,0 l/m 2,4 km/h SO 9,2 C 16,2 C 1,4 km/h
11.06.2011 17,0 C 68 % 1015,7 hPa 0,4 l/m 1,0 km/h N-NO 10,5 C 16,9 C 0,5 km/h
12.06.2011 18,4 C 61 % 1016,5 hPa 0,0 l/m 1,1 km/h W-NW 9,5 C 18,4 C 0,6 km/h
13.06.2011 18,1 C 70 % 1016,1 hPa 0,7 l/m 0,9 km/h SO 12,2 C 18,1 C 0,5 km/h
14.06.2011 20,9 C 67 % 1016,8 hPa 0,0 l/m 2,6 km/h SO 13,8 C 20,7 C 1,5 km/h
15.06.2011 22,5 C 65 % 1016,2 hPa 0,4 l/m 0,7 km/h N-NO 14,8 C 22,5 C 0,4 km/h
16.06.2011 19,9 C 71 % 1013,9 hPa 15,3 l/m 6,2 km/h SO 13,5 C 19,1 C 3,4 km/h
17.06.2011 20,4 C 70 % 1011,8 hPa 11,0 l/m 2,8 km/h N-NO 14,1 C 20,1 C 1,6 km/h
18.06.2011 16,8 C 68 % 1008,9 hPa 7,8 l/m 14,4 km/h W-SW 10,6 C 13,8 C 8,0 km/h
19.06.2011 14,0 C 74 % 1014,4 hPa 4,3 l/m 4,9 km/h W-SW 9,2 C 13,0 C 2,7 km/h
20.06.2011 16,8 C 74 % 1015,8 hPa 0,4 l/m 5,7 km/h SO 11,8 C 15,9 C 3,2 km/h
21.06.2011 23,2 C 63 % 1014,6 hPa 0,0 l/m 6,9 km/h SO 15,1 C 22,7 C 3,8 km/h
22.06.2011 20,9 C 73 % 1013,5 hPa 9,3 l/m 3,6 km/h SO 15,5 C 20,4 C 2,0 km/h
23.06.2011 17,6 C 71 % 1017,1 hPa 0,0 l/m 8,7 km/h SO 11,8 C 16,3 C 4,8 km/h
24.06.2011 17,8 C 62 % 1021,2 hPa 0,0 l/m 2,9 km/h O-SO 9,7 C 17,4 C 1,6 km/h
25.06.2011 17,8 C 61 % 1024,1 hPa 0,0 l/m 2,3 km/h O-SO 9,5 C 17,6 C 1,3 km/h
26.06.2011 23,6 C 61 % 1021,3 hPa 0,0 l/m 2,7 km/h W-NW 14,5 C 23,5 C 1,5 km/h
27.06.2011 26,4 C 60 % 1016,5 hPa 0,0 l/m 1,4 km/h NO 16,8 C 26,4 C 0,8 km/h
28.06.2011 28,4 C 59 % 1013,4 hPa 0,0 l/m 1,0 km/h N-NO 18,4 C 28,4 C 0,6 km/h
29.06.2011 20,9 C 77 % 1015,0 hPa 4,3 l/m 0,9 km/h N-NO 16,6 C 20,8 C 0,5 km/h
30.06.2011 19,6 C 62 % 1019,7 hPa 1,4 l/m 1,2 km/h N-NO 11,1 C 19,6 C 0,6 km/h
Min-Datum 10.06.11 30.06.11 07.06.11 16 Tage 01.06.11 - 10.06.11 19.06.11 01.06.11
Min-Zeit 05:30 18:30 18:30 - 00:30 - 05:30 02:30 00:30
Minimum 6,9 C 27 % 1000,8 hPa - 0,0 km/h - 4,9 C 5,0 C 0,0 km/h
Max-Datum 27.06.11 01.06.11 25.06.11 16.06.11 18.06.11 - 28.06.11 27.06.11 18.06.11
Max-Zeit 18:30 06:30 10:30 17:30 11:30 - 13:30 18:30 11:30
Maximum 41,1 C 87 % 1024,9 hPa 15,3 l/m 35,0 km/h
W-SW
- 21,8 C 41,1 C 19,4 km/h
W-SW
Durchschnitt 19,4 C 68 % 1015,0 hPa #78,7 l/m 3,1 km/h SO 12,6 C 19,0 C 1,8 km/h

Durchschnitt Minimum Temp.12,1 C
Durchschnitt Maximum Temp.28,6 C
www.sexauwetter.de